Davis, NC (28524)

1:33 PM EST on February 09, 2016 (GMT -0500)
Core Sound's 2 West Shore Heel of Rock Jetty | | Change Station
CLOSE
Current Station
Personal Weather Station
Location: Davis, NC
Elevation: 13 ft
Nearby Weather Stations

Elev 13 ft 34.80 °N, 76.46 °W | Updated 3 minutes ago

Partly Cloudy
Partly Cloudy
48.5 °F
Feels Like 45 °F
N
9.0
Wind Variable Wind from West
Gusts 9.0 mph

Today
High -- | Low -- °F
--% Chance of Precip.
Yesterday
High -- | Low -- °F
Precip. -- in
Pressure 29.64 in
Visibility 10.0 miles
Clouds Scattered Clouds 6500 ft
Windchill 45 °F
Dew Point 38 °F
Humidity 66%
Rainfall 0.00 in
Snow Depth Not available.
6:57 AM 5:42 PM
New Moon, 2% visible
METAR KMRH 091758Z AUTO 24014G19KT 10SM SCT065 09/03 A2964 RMK AO2 SLP036 T00940028 10094 20039 58015 TSNO
Pressure 29.64 in
Visibility 10.0 miles
Clouds Scattered Clouds 6500 ft
Windchill 45 °F
Dew Point 38 °F
Humidity 66%
Rainfall 0.00 in
Snow Depth Not available.
6:57 AM 5:42 PM
New Moon, 2% visible
METAR KMRH 091758Z AUTO 24014G19KT 10SM SCT065 09/03 A2964 RMK AO2 SLP036 T00940028 10094 20039 58015 TSNO

10-Day Weather Forecast

Almanac

Astronomy

Feb. 09, 2016 Rise Set
Actual Time
Civil Twilight
Nautical Twilight
Astronomical Twilight
Moon
Length of Visible Light
Length of Day
Tomorrow will be .
, % of the Moon is Illuminated

Today's Extremes

State Highs State Lows

Community

WunderPhotos

Upload Photos

1,891,656 photos uploaded!

WunderBlog® & News

Nearby

Air Quality

  Air Quality AQ Index Pollutant
Not available.

Snow Depth

Station Depth Elevation

Earthquake Activity

City Distance Mag. Time & Date
Minimum magnitude displayed is 2.5.

Coastal Water Temperatures

Place Temperature

Stations

Nearby Weather Stations

Station Location Temp. Windchill Dew Point Humidity Wind Precip. Elev Updated Type
                   

Watches & Warnings

There are currently no watches in effect.